Airport ID:KJTC
Update Time (UTC):11/08/2020 04:08
Wind Speed (Knots):10
Wind Direction (Magnetic):230
Temperature (°C):19
Dew Point (°C):-1
Humidity (%):25
Altimeter (inHg):30.32
Density Altitude (Feet):8800
Visibility:10+
Clouds (Hundreds of feet):CLR
Present Weather:
METAR:METAR KJTC 110405Z AUTO 24010KT 10SM CLR 19/M01 A3032 RMK AO2

The data displayed is for advisory purposes only and is not to be used for flight planning or operations.